»·PEaware :: N32KQ KBKF-1V6

N32KQ :: KBKF-1V6

FLIGHT INFORMATION

Flight Status: Arrived
Operator: Privately registered:
United States
More flights under this callsign
Pilot: Tom J. (20068)
Aircraft: Unknown
(KODI)
More flights by this aircraft type
Origin: KBKF Buckley AFB
United States
Destination: 1V6 Fremont Co
United States
More flights between these airports :: More routes between these airports
Route: +LUFSE V389 DRAKE STANO V244 FLOOD
File this flight plan on PilotEdge
Remarks:
Altitude:
(Current/Filed)
10,000ft
Speed:
(Current/Filed)
167kts
Departed: 16-Aug-18 04:47 PM
Arrived: 16-Aug-18 05:35 PM
Distance/Time
Traveled:
78nm/0:48
Distance/Time
To Go:
Arrived

Flight Plot

Page will automatically refresh every two minutes.

Flight plan parsing failed; only flown route is shown


Map Options




Map Legend


Flown Route
Filed Route
Departure Airport
Arrival Airport
Navaid (VOR, NDB)
Fix

Horizontal Profiles

Position Reports

Time Latitude Longitude Heading Altitude Ground
Speed
16-Aug-18 16:35 39.711666 -104.768673 180 5565ft 0kts
16-Aug-18 16:36 39.711666 -104.768673 180 5565ft 0kts
16-Aug-18 16:37 39.711666 -104.768673 180 5565ft 0kts
16-Aug-18 16:38 39.711666 -104.768673 180 5565ft 0kts
16-Aug-18 16:39 39.711666 -104.768673 180 5565ft 0kts
16-Aug-18 16:40 39.711666 -104.768673 180 5565ft 0kts
16-Aug-18 16:41 39.711666 -104.768673 180 5565ft 0kts
16-Aug-18 16:42 39.711612 -104.768327 81 5565ft 8kts
16-Aug-18 16:43 39.711859 -104.762406 86 5579ft 20kts
16-Aug-18 16:44 39.714178 -104.761978 90 5591ft 8kts
16-Aug-18 16:45 39.714187 -104.761668 88 5591ft 0kts
16-Aug-18 16:46 39.714187 -104.761668 88 5591ft 0kts
16-Aug-18 16:47 39.713641 -104.760434 148 5595ft 12kts
16-Aug-18 16:48 39.701847 -104.752343 153 5718ft 99kts
16-Aug-18 16:49 39.674720 -104.732271 144 6436ft 128kts
16-Aug-18 16:50 39.645281 -104.709076 146 7342ft 131kts
16-Aug-18 16:51 39.614385 -104.685604 147 8273ft 129kts
16-Aug-18 16:52 39.584411 -104.662892 147 9194ft 124kts
16-Aug-18 16:53 39.556114 -104.641462 149 10012ft 127kts
16-Aug-18 16:54 39.521227 -104.615202 149 10021ft 162kts
16-Aug-18 16:55 39.482131 -104.585714 149 10019ft 167kts
16-Aug-18 16:56 39.443597 -104.556684 149 10028ft 167kts
16-Aug-18 16:57 39.404074 -104.526942 148 10146ft 166kts
16-Aug-18 16:58 39.363998 -104.496847 149 10146ft 167kts
16-Aug-18 16:59 39.323756 -104.466662 149 10146ft 168kts
16-Aug-18 17:00 39.283446 -104.436455 149 10146ft 168kts
16-Aug-18 17:01 39.243138 -104.406272 149 10146ft 167kts
16-Aug-18 17:02 39.200549 -104.386154 179 10078ft 170kts
16-Aug-18 17:03 39.153942 -104.387426 180 10062ft 167kts
16-Aug-18 17:04 39.107782 -104.389546 181 10045ft 167kts
16-Aug-18 17:05 39.061563 -104.391886 181 10045ft 166kts
16-Aug-18 17:06 39.015257 -104.394165 180 10045ft 166kts
16-Aug-18 17:07 38.969176 -104.396401 181 10044ft 166kts
16-Aug-18 17:08 38.922813 -104.398622 180 10046ft 167kts
16-Aug-18 17:09 38.878871 -104.400733 180 10048ft 167kts
16-Aug-18 17:10 38.832477 -104.403095 180 9989ft 170kts
16-Aug-18 17:11 38.785560 -104.405339 180 9972ft 168kts
16-Aug-18 17:12 38.738919 -104.407590 180 9971ft 168kts
16-Aug-18 17:13 38.692240 -104.409924 179 9972ft 168kts
16-Aug-18 17:14 38.645320 -104.412166 179 9973ft 170kts
16-Aug-18 17:15 38.606781 -104.418963 220 9956ft 174kts
16-Aug-18 17:16 38.568035 -104.471450 226 9972ft 174kts
16-Aug-18 17:17 38.535067 -104.510830 205 9905ft 176kts
16-Aug-18 17:18 38.499026 -104.533350 201 9824ft 176kts
16-Aug-18 17:19 38.452649 -104.561315 202 9120ft 154kts
16-Aug-18 17:20 38.421585 -104.580005 204 8646ft 150kts
16-Aug-18 17:21 38.378163 -104.606185 206 7956ft 153kts
16-Aug-18 17:22 38.345751 -104.625747 208 7889ft 154kts
16-Aug-18 17:23 38.313351 -104.655410 265 7887ft 139kts
16-Aug-18 17:24 38.313735 -104.704095 277 7893ft 140kts
16-Aug-18 17:25 38.316988 -104.753559 278 7887ft 135kts
16-Aug-18 17:26 38.320284 -104.800365 268 7890ft 130kts
16-Aug-18 17:27 38.323325 -104.846105 269 7890ft 129kts
16-Aug-18 17:28 38.327697 -104.891615 289 7881ft 133kts
16-Aug-18 17:29 38.345188 -104.929383 293 7892ft 125kts
16-Aug-18 17:30 38.363837 -104.969100 303 7677ft 133kts
16-Aug-18 17:31 38.382370 -105.008048 303 7110ft 124kts
16-Aug-18 17:32 38.397364 -105.039834 302 6609ft 82kts
16-Aug-18 17:33 38.408346 -105.063165 302 6134ft 73kts
16-Aug-18 17:34 38.418661 -105.085031 299 5760ft 73kts
16-Aug-18 17:35 38.429117 -105.107349 302 5443ft 53kts
16-Aug-18 17:36 38.431816 -105.111501 32 5442ft 6kts
16-Aug-18 17:37 38.430571 -105.108237 121 5442ft 15kts
16-Aug-18 17:38 38.430884 -105.104711 88 5442ft 10kts
16-Aug-18 17:39 38.431293 -105.101976 356 5442ft 5kts
16-Aug-18 17:40 38.431999 -105.101813 342 5442ft 0kts
16-Aug-18 17:41 38.431999 -105.101813 342 5442ft 0kts
16-Aug-18 17:42 38.431999 -105.101814 342 5443ft 0kts
16-Aug-18 17:43 38.431940 -105.101753 299 5443ft 1kts

Navigation Log

Ident Type
Flight plan parsing failed, navigation log unavailable